Time;durP1;ratioP1;P1;durP2;ratioP2;P2;SDS_P1;SDS_P2;PMS_P1;PMS_P2;Temp;Humidity;BMP_temperature;BMP_pressure;BME280_temperature;BME280_humidity;BME280_pressure;Samples;Min_cycle;Max_cycle;Signal;HPM_P1;HPM_P2
2022/07/28 00:00:08;;;;;;;5.60;2.43;;;16.50;99.90;;;;;;5083459;28;20167;-85
2022/07/28 00:02:34;;;;;;;2.57;1.33;;;16.40;99.90;;;;;;5082586;28;20202;-86
2022/07/28 00:04:59;;;;;;;4.43;1.50;;;16.40;99.90;;;;;;5082830;28;20513;-87
2022/07/28 00:07:25;;;;;;;2.87;1.53;;;16.50;99.90;;;;;;5080430;28;20191;-87
2022/07/28 00:09:51;;;;;;;5.33;1.07;;;16.40;99.90;;;;;;5086338;28;20229;-86
2022/07/28 00:12:16;;;;;;;3.80;1.60;;;16.40;99.90;;;;;;5081439;28;20219;-86
2022/07/28 00:14:42;;;;;;;6.27;1.73;;;16.10;99.90;;;;;;5080465;28;20425;-88
2022/07/28 00:17:08;;;;;;;3.23;1.60;;;16.50;99.90;;;;;;5081719;28;20180;-89
2022/07/28 00:19:34;;;;;;;3.57;1.43;;;16.50;99.90;;;;;;5087828;28;20440;-92
2022/07/28 00:21:59;;;;;;;4.90;1.97;;;18.50;99.90;;;;;;5080646;28;20204;-87
2022/07/28 00:24:25;;;;;;;3.17;1.50;;;16.50;99.90;;;;;;5081710;28;22589;-90
2022/07/28 00:26:50;;;;;;;3.13;1.57;;;16.60;99.90;;;;;;5083746;28;20249;-90
2022/07/28 00:29:16;;;;;;;3.27;1.30;;;17.10;99.90;;;;;;5086533;28;20946;-88
2022/07/28 00:31:42;;;;;;;5.23;1.53;;;16.70;99.90;;;;;;5083148;28;20252;-89
2022/07/28 00:34:08;;;;;;;3.00;1.43;;;16.70;99.90;;;;;;5080475;28;20176;-89
2022/07/28 00:36:33;;;;;;;2.80;1.33;;;18.10;99.90;;;;;;5084206;28;20172;-89
2022/07/28 00:38:59;;;;;;;2.53;1.80;;;16.90;99.90;;;;;;5076642;28;20210;-89
2022/07/28 00:41:24;;;;;;;5.20;2.07;;;;;;;;;;5084011;28;20282;-89
2022/07/28 00:43:51;;;;;;;4.67;1.40;;;17.00;99.90;;;;;;5083850;28;20269;-87
2022/07/28 00:46:19;;;;;;;4.30;1.53;;;18.80;99.90;;;;;;5081264;28;20493;-88
2022/07/28 00:48:47;;;;;;;7.60;1.80;;;16.90;99.90;;;;;;5080564;28;20454;-88
2022/07/28 00:51:15;;;;;;;3.10;1.50;;;17.00;99.90;;;;;;5081923;28;20438;-89
2022/07/28 00:53:40;;;;;;;3.50;1.70;;;17.00;99.90;;;;;;5082164;28;20414;-89
2022/07/28 00:56:07;;;;;;;1.73;1.10;;;17.00;99.90;;;;;;5080943;28;20431;-88
2022/07/28 00:58:34;;;;;;;2.90;1.90;;;16.90;99.90;;;;;;5081066;28;20188;-87
2022/07/28 01:01:00;;;;;;;3.50;1.30;;;16.90;99.90;;;;;;5077774;28;20675;-90
2022/07/28 01:03:26;;;;;;;4.20;1.57;;;17.00;99.90;;;;;;5082106;28;22834;-90
2022/07/28 01:06:16;;;;;;;6.73;1.40;;;17.10;99.90;;;;;;5081354;28;20232;-89
2022/07/28 01:09:10;;;;;;;5.20;2.07;;;17.10;99.90;;;;;;5075925;28;20522;-89
2022/07/28 01:11:50;;;;;;;5.60;1.40;;;17.10;99.90;;;;;;5076840;28;20640;-88
2022/07/28 01:14:38;;;;;;;2.77;1.30;;;17.10;99.90;;;;;;5078369;28;20466;-87
2022/07/28 01:17:15;;;;;;;4.70;1.43;;;16.80;99.90;;;;;;5078688;28;20426;-88
2022/07/28 01:19:49;;;;;;;7.47;3.00;;;16.60;99.90;;;;;;5081256;28;20448;-88
2022/07/28 01:22:21;;;;;;;2.57;1.83;;;20.10;99.90;;;;;;5079584;28;20474;-86
2022/07/28 01:25:05;;;;;;;3.70;1.70;;;16.60;99.90;;;;;;5091124;28;20441;-86
2022/07/28 01:27:42;;;;;;;4.83;1.40;;;16.60;99.90;;;;;;5076715;28;20475;-86
2022/07/28 01:30:33;;;;;;;3.80;1.30;;;16.50;99.90;;;;;;5073349;28;20445;-86
2022/07/28 01:33:02;;;;;;;8.60;1.43;;;16.50;99.90;;;;;;5077447;28;20460;-85
2022/07/28 01:35:31;;;;;;;1.33;1.23;;;16.50;99.90;;;;;;5073966;28;20517;-85
2022/07/28 01:38:02;;;;;;;4.03;1.63;;;16.40;99.90;;;;;;5077771;28;21752;-85
2022/07/28 01:40:33;;;;;;;4.00;1.73;;;16.30;99.90;;;;;;5077071;28;20497;-86
2022/07/28 01:43:04;;;;;;;2.70;1.33;;;16.20;99.90;;;;;;5075059;28;20461;-85
2022/07/28 01:45:32;;;;;;;4.90;1.47;;;16.20;99.90;;;;;;5075872;28;20525;-85
2022/07/28 01:47:59;;;;;;;2.87;1.60;;;16.00;99.90;;;;;;5076907;28;20547;-85
2022/07/28 01:50:27;;;;;;;2.77;1.40;;;15.90;99.90;;;;;;5084181;28;20426;-85
2022/07/28 01:52:54;;;;;;;1.90;1.50;;;15.80;99.90;;;;;;5076043;28;20525;-87
2022/07/28 01:55:22;;;;;;;3.60;1.50;;;15.80;99.90;;;;;;5077021;28;20442;-85
2022/07/28 01:57:48;;;;;;;3.70;1.20;;;15.80;99.90;;;;;;5073407;28;20460;-84
2022/07/28 02:00:14;;;;;;;5.93;1.60;;;15.80;99.90;;;;;;5076234;28;20439;-85
2022/07/28 02:02:45;;;;;;;4.00;1.70;;;15.70;99.90;;;;;;5080840;28;20457;-85
2022/07/28 02:05:15;;;;;;;5.10;1.40;;;15.50;99.90;;;;;;5076218;28;20457;-87
2022/07/28 02:07:42;;;;;;;7.73;1.70;;;15.50;99.90;;;;;;5077306;28;20200;-87
2022/07/28 02:10:10;;;;;;;5.33;1.57;;;15.40;99.90;;;;;;5075025;28;20432;-87
2022/07/28 02:12:38;;;;;;;4.70;1.87;;;15.40;99.90;;;;;;5092925;28;20471;-89
2022/07/28 02:15:10;;;;;;;4.40;1.57;;;15.40;99.90;;;;;;5076953;28;20438;-88
2022/07/28 02:17:37;;;;;;;1.90;1.37;;;15.20;99.90;;;;;;5078863;28;20609;-89
2022/07/28 02:20:04;;;;;;;4.10;2.20;;;15.30;99.90;;;;;;5081412;28;20421;-87
2022/07/28 02:22:30;;;;;;;3.97;1.17;;;15.30;99.90;;;;;;5084101;28;20600;-85
2022/07/28 02:24:56;;;;;;;4.27;1.23;;;15.30;99.90;;;;;;5085451;28;20511;-87
2022/07/28 02:27:23;;;;;;;1.60;1.37;;;15.30;99.90;;;;;;5088510;28;20806;-87
2022/07/28 02:29:54;;;;;;;2.43;1.30;;;15.30;99.90;;;;;;5086808;28;20951;-88
2022/07/28 02:32:30;;;;;;;3.27;1.13;;;15.30;99.90;;;;;;5082569;28;21142;-89
2022/07/28 02:35:04;;;;;;;3.63;1.50;;;15.30;99.90;;;;;;5082217;28;20474;-88
2022/07/28 02:37:35;;;;;;;2.07;1.60;;;15.30;99.90;;;;;;5097600;28;20426;-88
2022/07/28 02:40:03;;;;;;;1.73;1.60;;;15.20;99.90;;;;;;5084496;28;20460;-89
2022/07/28 02:42:32;;;;;;;3.83;1.30;;;15.30;99.90;;;;;;5086204;28;20540;-88
2022/07/28 02:45:02;;;;;;;6.67;1.60;;;15.00;99.90;;;;;;5080331;28;20660;-88
2022/07/28 02:47:33;;;;;;;2.20;1.40;;;15.20;99.90;;;;;;5087474;28;20525;-89
2022/07/28 02:50:02;;;;;;;4.97;1.50;;;15.20;99.90;;;;;;5085534;28;20185;-88
2022/07/28 02:52:28;;;;;;;3.87;1.30;;;15.20;99.90;;;;;;5079987;28;20457;-88
2022/07/28 02:54:56;;;;;;;2.77;1.23;;;15.80;99.90;;;;;;5082013;28;20847;-87
2022/07/28 02:57:23;;;;;;;4.30;1.70;;;15.10;99.90;;;;;;5078878;28;20425;-87
2022/07/28 02:59:50;;;;;;;5.97;1.50;;;14.90;99.90;;;;;;5074709;28;20427;-87
2022/07/28 03:02:21;;;;;;;1.40;1.07;;;15.10;99.90;;;;;;5077929;28;21043;-87
2022/07/28 03:04:58;;;;;;;3.92;1.67;;;14.50;99.90;;;;;;5090370;28;20430;-88
2022/07/28 03:07:28;;;;;;;4.67;2.13;;;15.00;99.90;;;;;;5098431;28;20199;-88
2022/07/28 03:09:54;;;;;;;3.90;1.70;;;15.10;99.90;;;;;;5080485;28;20465;-88
2022/07/28 03:12:19;;;;;;;2.13;1.20;;;15.10;99.90;;;;;;5080956;28;20464;-85
2022/07/28 03:14:45;;;;;;;1.73;1.53;;;15.10;99.90;;;;;;5081082;28;20434;-85
2022/07/28 03:17:11;;;;;;;3.20;1.70;;;15.20;99.90;;;;;;5084660;28;20183;-84
2022/07/28 03:19:36;;;;;;;5.70;1.93;;;15.20;99.90;;;;;;5084973;28;20187;-85
2022/07/28 03:22:03;;;;;;;5.10;1.90;;;15.20;99.90;;;;;;5087788;28;22494;-85
2022/07/28 03:24:37;;;;;;;9.38;1.73;;;15.10;99.90;;;;;;5087037;28;20870;-85
2022/07/28 03:27:23;;;;;;;2.88;1.65;;;15.10;99.90;;;;;;5086838;28;20614;-85
2022/07/28 03:29:56;;;;;;;1.30;1.20;;;15.10;99.90;;;;;;5080545;28;20204;-84
2022/07/28 03:32:24;;;;;;;6.55;1.27;;;15.10;99.90;;;;;;5082827;28;20442;-85
2022/07/28 03:34:51;;;;;;;3.30;1.40;;;15.10;99.90;;;;;;5086076;28;20180;-85
2022/07/28 03:37:22;;;;;;;5.32;1.70;;;15.10;99.90;;;;;;5085570;28;20176;-84
2022/07/28 03:39:50;;;;;;;4.30;1.88;;;15.10;99.90;;;;;;5085025;28;20192;-86
2022/07/28 03:42:17;;;;;;;4.20;2.20;;;15.20;99.90;;;;;;5100024;28;20204;-86
2022/07/28 03:44:45;;;;;;;5.50;1.50;;;15.30;99.90;;;;;;5090030;28;20414;-86
2022/07/28 03:47:11;;;;;;;4.33;1.70;;;15.30;99.90;;;;;;5085555;28;20189;-86
2022/07/28 03:49:44;;;;;;;5.33;1.90;;;16.10;99.90;;;;;;5085591;28;20462;-86
2022/07/28 03:52:09;;;;;;;8.53;1.60;;;15.00;99.90;;;;;;5082683;28;20446;-88
2022/07/28 03:54:35;;;;;;;2.77;1.63;;;15.00;99.90;;;;;;5081325;28;20429;-88
2022/07/28 03:57:00;;;;;;;3.33;1.63;;;14.90;99.90;;;;;;5083410;28;20213;-87
2022/07/28 03:59:26;;;;;;;6.07;1.70;;;14.90;99.90;;;;;;5086426;28;20608;-87
2022/07/28 04:01:54;;;;;;;4.10;1.70;;;14.90;99.90;;;;;;5083975;28;20212;-87
2022/07/28 04:04:19;;;;;;;2.70;1.50;;;14.80;99.90;;;;;;5087015;28;21918;-87
2022/07/28 04:06:45;;;;;;;4.20;1.87;;;15.00;99.90;;;;;;5086276;28;20501;-88
2022/07/28 04:09:10;;;;;;;4.47;2.13;;;15.20;99.90;;;;;;5082699;28;20239;-87
2022/07/28 04:11:36;;;;;;;3.33;1.70;;;15.00;99.90;;;;;;5046886;28;1042756;-87
2022/07/28 04:14:01;;;;;;;2.77;1.70;;;15.00;99.90;;;;;;5081826;28;20184;-86
2022/07/28 04:16:27;;;;;;;5.70;1.70;;;15.00;99.90;;;;;;5079497;28;20240;-86
2022/07/28 04:18:52;;;;;;;4.80;1.67;;;15.10;99.90;;;;;;5090694;28;20613;-86
2022/07/28 04:21:18;;;;;;;3.80;1.63;;;15.40;99.90;;;;;;5089189;28;20180;-84
2022/07/28 04:23:43;;;;;;;6.63;1.60;;;15.20;99.90;;;;;;5087785;28;20180;-86
2022/07/28 04:26:09;;;;;;;2.40;1.30;;;15.30;99.90;;;;;;5084614;28;20694;-86
2022/07/28 04:28:35;;;;;;;3.33;1.60;;;15.30;99.90;;;;;;5088911;28;20214;-85
2022/07/28 04:31:00;;;;;;;9.27;2.07;;;15.40;99.90;;;;;;5084228;28;20240;-89
2022/07/28 04:33:26;;;;;;;3.90;1.57;;;15.60;99.90;;;;;;5084574;28;20201;-88
2022/07/28 04:35:52;;;;;;;3.07;1.90;;;;;;;;;;5086527;28;20162;-89
2022/07/28 04:38:19;;;;;;;3.10;1.80;;;16.00;99.90;;;;;;5084400;28;20202;-87
2022/07/28 04:40:46;;;;;;;6.00;1.73;;;16.20;99.90;;;;;;5083261;28;20437;-87
2022/07/28 04:43:12;;;;;;;4.87;2.07;;;16.40;99.90;;;;;;5089648;28;20454;-87
2022/07/28 04:45:38;;;;;;;3.33;1.40;;;17.00;99.90;;;;;;5083399;28;20436;-87
2022/07/28 04:48:04;;;;;;;2.67;1.80;;;18.00;99.90;;;;;;5083388;28;20526;-83
2022/07/28 04:50:29;;;;;;;4.50;1.97;;;18.60;99.90;;;;;;5087208;28;20701;-82
2022/07/28 04:52:55;;;;;;;6.70;2.00;;;18.80;99.90;;;;;;5083630;28;20454;-83
2022/07/28 04:55:20;;;;;;;2.20;1.40;;;18.80;99.90;;;;;;5084150;28;20195;-86
2022/07/28 04:57:47;;;;;;;3.90;1.30;;;18.60;99.90;;;;;;5085417;28;20176;-83
2022/07/28 05:00:13;;;;;;;3.90;1.47;;;18.90;99.90;;;;;;5085813;28;20180;-82
2022/07/28 05:02:43;;;;;;;4.23;1.53;;;19.30;99.90;;;;;;5082820;28;20453;-83
2022/07/28 05:05:10;;;;;;;7.10;2.40;;;20.20;99.90;;;;;;5076371;28;20433;-82
2022/07/28 05:07:40;;;;;;;6.93;1.53;;;21.10;99.90;;;;;;5074783;28;20470;-82
2022/07/28 05:10:08;;;;;;;5.80;1.57;;;20.80;99.50;;;;;;5069964;28;20572;-82
2022/07/28 05:12:34;;;;;;;3.83;2.10;;;20.50;99.50;;;;;;5077468;28;20454;-82
2022/07/28 05:14:59;;;;;;;2.00;1.60;;;20.30;98.00;;;;;;5077901;28;20969;-82
2022/07/28 05:17:26;;;;;;;6.10;2.70;;;19.70;97.50;;;;;;5070582;28;20196;-81
2022/07/28 05:19:52;;;;;;;9.30;2.30;;;19.30;99.90;;;;;;5073324;28;20563;-82
2022/07/28 05:22:17;;;;;;;3.40;1.80;;;19.30;99.90;;;;;;5076725;28;20446;-82
2022/07/28 05:24:43;;;;;;;3.00;1.60;;;19.40;99.90;;;;;;5076070;28;20417;-82
2022/07/28 05:27:10;;;;;;;4.80;2.63;;;19.50;99.90;;;;;;5073485;28;20184;-82
2022/07/28 05:29:39;;;;;;;2.60;1.70;;;19.50;99.90;;;;;;5071272;28;20192;-82
2022/07/28 05:32:06;;;;;;;5.53;3.13;;;19.80;99.90;;;;;;5079264;28;20819;-82
2022/07/28 05:34:32;;;;;;;4.80;1.77;;;20.00;99.90;;;;;;5076621;28;20523;-83
2022/07/28 05:36:57;;;;;;;5.83;2.20;;;20.10;99.90;;;;;;5079328;28;20986;-82
2022/07/28 05:39:23;;;;;;;6.40;2.20;;;20.10;98.50;;;;;;5074662;28;20279;-83
2022/07/28 05:41:48;;;;;;;6.37;2.30;;;20.10;98.10;;;;;;5078597;28;20605;-83
2022/07/28 05:44:14;;;;;;;5.17;1.77;;;20.30;98.00;;;;;;5075271;28;20175;-84
2022/07/28 05:46:39;;;;;;;4.90;1.93;;;20.50;97.50;;;;;;5079226;28;20194;-84
2022/07/28 05:49:05;;;;;;;4.13;2.37;;;20.50;97.40;;;;;;5077776;28;22972;-83
2022/07/28 05:51:31;;;;;;;7.93;1.70;;;24.10;93.20;;;;;;5078739;28;20185;-83
2022/07/28 05:53:56;;;;;;;3.00;2.03;;;24.10;92.90;;;;;;5083053;28;20185;-82
2022/07/28 05:56:22;;;;;;;3.80;1.83;;;25.60;90.50;;;;;;5075895;28;20261;-84
2022/07/28 05:58:48;;;;;;;4.03;1.70;;;27.00;82.30;;;;;;5079136;28;20601;-82
2022/07/28 06:01:13;;;;;;;2.90;1.87;;;28.10;78.50;;;;;;5076535;28;20188;-82
2022/07/28 06:03:39;;;;;;;4.93;2.20;;;30.10;72.30;;;;;;5081106;28;20450;-82
2022/07/28 06:06:05;;;;;;;5.33;2.00;;;32.10;61.70;;;;;;5075021;28;20179;-84
2022/07/28 06:08:31;;;;;;;4.07;1.90;;;33.30;57.00;;;;;;5072288;28;20207;-81
2022/07/28 06:11:10;;;;;;;7.60;2.37;;;34.50;51.90;;;;;;5076237;28;20188;-84
2022/07/28 06:13:36;;;;;;;6.20;3.10;;;35.30;49.50;;;;;;5072167;28;20441;-83
2022/07/28 06:16:06;;;;;;;4.73;2.90;;;36.00;48.30;;;;;;5072679;28;20544;-84
2022/07/28 06:18:32;;;;;;;5.73;4.00;;;36.80;45.80;;;;;;5072583;28;20436;-85
2022/07/28 06:20:57;;;;;;;5.07;4.07;;;37.00;43.30;;;;;;5074587;28;20510;-83
2022/07/28 06:23:23;;;;;;;5.10;4.60;;;37.20;42.50;;;;;;5082242;28;20224;-85
2022/07/28 06:25:52;;;;;;;6.83;4.90;;;37.50;41.70;;;;;;5078225;28;21378;-85
2022/07/28 06:28:18;;;;;;;6.57;5.50;;;37.60;41.00;;;;;;5071304;28;21682;-83
2022/07/28 06:30:50;;;;;;;6.47;5.03;;;37.00;40.40;;;;;;5070251;28;20535;-83
2022/07/28 06:33:16;;;;;;;6.70;6.07;;;36.70;41.40;;;;;;5090878;28;20495;-84
2022/07/28 06:35:42;;;;;;;6.63;5.63;;;35.20;40.80;;;;;;5082417;28;20443;-84
2022/07/28 06:38:08;;;;;;;5.80;5.10;;;35.70;42.40;;;;;;5075950;28;20860;-83
2022/07/28 06:40:33;;;;;;;7.23;5.70;;;36.90;42.10;;;;;;5075387;28;20438;-84
2022/07/28 06:42:59;;;;;;;8.47;6.20;;;37.20;40.90;;;;;;5075288;28;20240;-83
2022/07/28 06:45:25;;;;;;;6.47;6.00;;;37.80;39.90;;;;;;5076754;28;20986;-84
2022/07/28 06:47:51;;;;;;;7.90;5.90;;;37.80;39.40;;;;;;5076257;28;20183;-85
2022/07/28 06:50:16;;;;;;;7.53;6.60;;;38.20;39.20;;;;;;5080125;28;20190;-86
2022/07/28 06:52:42;;;;;;;8.23;6.50;;;38.10;37.90;;;;;;5077822;28;20789;-85
2022/07/28 06:55:08;;;;;;;7.40;6.70;;;37.80;38.80;;;;;;5083869;28;20208;-84
2022/07/28 06:57:34;;;;;;;9.43;6.90;;;38.10;38.00;;;;;;5081996;28;20192;-83
2022/07/28 07:00:02;;;;;;;9.57;5.93;;;37.60;38.10;;;;;;5084065;28;21078;-83
2022/07/28 07:02:27;;;;;;;7.00;6.33;;;37.30;38.40;;;;;;5080079;28;20209;-85
2022/07/28 07:04:53;;;;;;;6.23;5.90;;;37.30;38.90;;;;;;5082364;28;20446;-84
2022/07/28 07:07:18;;;;;;;7.20;6.60;;;37.30;38.40;;;;;;5081039;28;20194;-84
2022/07/28 07:09:44;;;;;;;10.70;6.93;;;37.50;38.30;;;;;;5079854;28;20718;-84
2022/07/28 07:12:10;;;;;;;6.90;6.30;;;37.40;38.90;;;;;;5079538;28;20236;-84
2022/07/28 07:14:35;;;;;;;7.10;6.50;;;37.60;38.20;;;;;;5079273;28;20198;-85
2022/07/28 07:17:01;;;;;;;7.30;6.73;;;38.50;38.70;;;;;;5081151;28;20653;-84
2022/07/28 07:19:26;;;;;;;8.73;7.87;;;39.30;37.10;;;;;;5082018;28;20277;-84
2022/07/28 07:21:52;;;;;;;12.00;7.70;;;39.30;37.00;;;;;;5081758;28;20203;-85
2022/07/28 07:24:18;;;;;;;8.80;8.30;;;39.40;36.70;;;;;;5077994;28;20197;-83
2022/07/28 07:26:43;;;;;;;9.90;9.20;;;39.50;36.30;;;;;;5090996;28;20183;-84
2022/07/28 07:29:10;;;;;;;9.80;8.90;;;38.80;36.40;;;;;;5079912;28;20260;-83
2022/07/28 07:31:37;;;;;;;9.73;9.13;;;39.00;36.00;;;;;;5077710;28;20258;-83
2022/07/28 07:34:03;;;;;;;8.40;7.80;;;39.00;36.50;;;;;;5084525;28;22743;-85
2022/07/28 07:36:30;;;;;;;6.30;5.80;;;39.30;35.60;;;;;;5078614;28;20508;-83
2022/07/28 07:38:55;;;;;;;7.90;7.30;;;39.30;36.20;;;;;;5075435;28;21554;-83
2022/07/28 07:41:21;;;;;;;10.23;9.57;;;40.50;34.70;;;;;;5075110;28;20512;-83
2022/07/28 07:43:47;;;;;;;9.93;9.40;;;40.50;35.20;;;;;;5082080;28;20214;-88
2022/07/28 07:46:13;;;;;;;11.20;10.13;;;40.40;35.00;;;;;;5078439;28;20224;-86
2022/07/28 07:48:39;;;;;;;11.93;10.87;;;41.20;34.50;;;;;;5080994;28;20931;-87
2022/07/28 07:51:06;;;;;;;10.43;9.83;;;40.30;33.20;;;;;;5097024;28;20417;-88
2022/07/28 07:53:32;;;;;;;11.27;10.67;;;40.80;33.90;;;;;;5076773;28;20192;-88
2022/07/28 07:55:58;;;;;;;11.40;10.57;;;39.20;33.70;;;;;;5076726;28;20484;-88
2022/07/28 07:58:24;;;;;;;9.67;9.07;;;38.50;35.60;;;;;;5076648;28;20797;-88
2022/07/28 08:00:49;;;;;;;10.20;9.60;;;38.70;36.30;;;;;;5076718;28;20180;-88
2022/07/28 08:03:15;;;;;;;10.27;9.60;;;38.60;36.50;;;;;;5078717;28;20670;-89
2022/07/28 08:05:41;;;;;;;10.40;9.90;;;39.20;36.20;;;;;;5092915;28;20187;-85
2022/07/28 08:08:07;;;;;;;10.50;9.63;;;39.10;36.10;;;;;;5088621;28;20465;-88
2022/07/28 08:10:34;;;;;;;10.00;9.33;;;38.80;36.10;;;;;;5076655;28;20433;-86
2022/07/28 08:13:00;;;;;;;11.10;10.30;;;38.60;36.20;;;;;;5075157;28;20249;-88
2022/07/28 08:15:25;;;;;;;11.27;10.33;;;38.90;36.70;;;;;;5076983;28;20388;-87
2022/07/28 08:17:51;;;;;;;10.47;9.87;;;39.20;36.20;;;;;;5077078;28;20622;-89
2022/07/28 08:20:16;;;;;;;12.10;11.07;;;39.30;36.10;;;;;;5076190;28;20183;-90
2022/07/28 08:22:56;;;;;;;10.63;9.60;;;38.10;36.50;;;;;;5075336;28;20199;-89
2022/07/28 08:25:22;;;;;;;12.73;9.83;;;38.80;37.30;;;;;;5076222;28;20495;-88
2022/07/28 08:27:48;;;;;;;11.23;10.30;;;38.10;36.50;;;;;;5077016;28;20415;-87
2022/07/28 08:30:15;;;;;;;11.43;10.30;;;37.10;37.40;;;;;;5075734;28;20419;-90
2022/07/28 08:32:41;;;;;;;11.47;10.47;;;37.60;38.40;;;;;;5077209;28;20193;-88
2022/07/28 08:35:07;;;;;;;11.33;10.53;;;37.10;38.30;;;;;;5075837;28;20415;-88
2022/07/28 08:37:33;;;;;;;11.27;10.40;;;37.40;38.80;;;;;;5096008;28;20415;-88
2022/07/28 08:39:59;;;;;;;10.73;9.80;;;;;;;;;;5094564;28;20465;-89
2022/07/28 08:42:34;;;;;;;12.00;10.80;;;38.60;37.60;;;;;;5095149;28;20846;-89
2022/07/28 08:45:06;;;;;;;11.53;10.43;;;38.00;36.80;;;;;;5096729;28;20400;-89
2022/07/28 08:47:34;;;;;;;13.83;11.10;;;37.50;38.40;;;;;;5097019;28;20432;-88
2022/07/28 08:50:01;;;;;;;12.13;11.03;;;37.50;38.70;;;;;;5094969;28;20492;-88
2022/07/28 08:52:32;;;;;;;10.80;10.00;;;36.60;38.60;;;;;;5093576;28;20554;-87
2022/07/28 08:55:00;;;;;;;11.30;10.30;;;37.00;39.70;;;;;;5080401;28;20435;-88
2022/07/28 08:57:56;;;;;;;12.27;11.47;;;36.50;39.80;;;;;;5092311;28;20801;-88
2022/07/28 09:00:23;;;;;;;11.90;10.87;;;37.30;38.60;;;;;;5086252;28;20424;-83
2022/07/28 09:02:50;;;;;;;11.80;10.73;;;37.30;39.40;;;;;;5074992;28;20459;-84
2022/07/28 09:05:18;;;;;;;11.57;10.43;;;37.40;39.30;;;;;;5073629;28;20797;-82
2022/07/28 09:07:47;;;;;;;13.33;12.03;;;37.70;39.70;;;;;;5074174;28;20470;-84
2022/07/28 09:10:12;;;;;;;11.57;10.67;;;38.00;39.00;;;;;;5075177;28;20551;-84
2022/07/28 09:12:41;;;;;;;11.77;10.67;;;38.50;39.20;;;;;;5074959;28;20556;-82
2022/07/28 09:15:08;;;;;;;13.00;12.20;;;38.60;38.40;;;;;;5070504;28;20201;-83
2022/07/28 09:17:35;;;;;;;14.13;12.90;;;38.50;38.30;;;;;;5072284;28;20504;-83
2022/07/28 09:20:03;;;;;;;15.13;13.73;;;37.90;38.80;;;;;;5078449;28;20451;-83
2022/07/28 09:22:28;;;;;;;11.90;11.13;;;37.60;39.00;;;;;;5075743;28;20530;-83
2022/07/28 09:24:54;;;;;;;13.10;11.47;;;37.10;38.80;;;;;;5075915;28;21522;-82
2022/07/28 09:27:19;;;;;;;12.03;11.03;;;37.00;39.60;;;;;;5075201;28;20189;-82
2022/07/28 09:29:59;;;;;;;12.87;11.40;;;35.90;41.10;;;;;;5073070;28;20206;-84
2022/07/28 09:32:26;;;;;;;12.13;10.87;;;35.90;41.70;;;;;;5074054;28;20261;-84
2022/07/28 09:34:52;;;;;;;11.47;10.23;;;34.60;42.60;;;;;;5077211;28;20414;-84
2022/07/28 09:37:17;;;;;;;11.53;10.63;;;35.40;43.00;;;;;;5075401;28;20472;-84
2022/07/28 09:39:44;;;;;;;11.77;10.90;;;35.00;42.80;;;;;;5073498;28;21105;-84
2022/07/28 09:42:10;;;;;;;11.73;10.83;;;34.50;43.20;;;;;;5082885;28;20217;-83
2022/07/28 09:44:36;;;;;;;10.80;10.00;;;35.50;43.00;;;;;;5072116;28;20593;-83
2022/07/28 09:47:27;;;;;;;11.23;10.30;;;36.60;42.10;;;;;;5073032;28;20192;-83
2022/07/28 09:49:53;;;;;;;11.70;10.70;;;37.40;40.90;;;;;;5075780;28;20246;-84
2022/07/28 09:52:34;;;;;;;12.60;11.67;;;37.00;41.20;;;;;;5079339;28;20480;-84
2022/07/28 09:55:04;;;;;;;12.83;11.73;;;37.10;41.50;;;;;;5090837;28;20267;-89
2022/07/28 09:57:32;;;;;;;11.43;10.43;;;37.90;40.10;;;;;;5081809;28;20817;-87
2022/07/28 09:59:58;;;;;;;12.73;11.73;;;37.80;40.40;;;;;;5080705;28;20435;-89
2022/07/28 10:02:30;;;;;;;12.80;11.73;;;37.00;40.30;;;;;;5082333;28;20892;-88
2022/07/28 10:04:56;;;;;;;12.40;11.27;;;34.70;42.50;;;;;;5081343;28;20173;-89
2022/07/28 10:07:22;;;;;;;10.90;10.00;;;34.40;44.00;;;;;;5082230;28;20466;-87
2022/07/28 10:10:04;;;;;;;10.33;9.63;;;34.10;44.10;;;;;;5081816;28;20477;-89
2022/07/28 10:12:32;;;;;;;11.23;10.13;;;33.60;45.20;;;;;;5089213;28;20220;-88
2022/07/28 10:17:55;;;;;;;8.47;7.87;;;31.70;47.60;;;;;;5078586;28;20894;-89
2022/07/28 10:20:21;;;;;;;11.30;7.63;;;31.80;48.60;;;;;;5082549;28;20438;-88
2022/07/28 10:22:47;;;;;;;8.60;7.90;;;31.60;49.20;;;;;;5082141;28;20227;-88
2022/07/28 10:25:13;;;;;;;8.67;7.97;;;32.30;48.10;;;;;;5079862;28;21448;-88
2022/07/28 10:27:40;;;;;;;9.50;8.50;;;33.50;46.80;;;;;;5078870;28;20437;-88
2022/07/28 10:30:06;;;;;;;9.00;8.07;;;33.50;46.20;;;;;;5081807;28;20214;-88
2022/07/28 10:32:37;;;;;;;8.60;7.93;;;33.00;47.00;;;;;;5078671;28;20447;-88
2022/07/28 10:35:06;;;;;;;9.67;7.63;;;32.60;47.70;;;;;;5088339;28;20423;-89
2022/07/28 10:37:37;;;;;;;9.03;8.23;;;32.30;47.80;;;;;;5088585;28;21315;-88
2022/07/28 10:40:10;;;;;;;7.70;7.10;;;32.00;48.10;;;;;;5080297;28;20654;-88
2022/07/28 10:42:37;;;;;;;10.40;8.00;;;31.80;48.60;;;;;;5081450;28;20450;-88
2022/07/28 10:45:03;;;;;;;8.00;7.40;;;31.40;49.30;;;;;;5081312;28;21025;-88
2022/07/28 10:47:29;;;;;;;7.83;7.13;;;31.40;49.40;;;;;;5081955;28;20535;-88
2022/07/28 10:49:55;;;;;;;8.23;7.40;;;30.60;49.60;;;;;;5082488;28;20572;-89
2022/07/28 10:52:22;;;;;;;7.33;6.63;;;30.40;50.30;;;;;;5080558;28;21001;-88
2022/07/28 10:55:17;;;;;;;6.87;5.97;;;30.10;50.70;;;;;;5076896;28;20445;-89
2022/07/28 10:57:55;;;;;;;7.10;5.70;;;29.60;51.80;;;;;;5078608;28;20438;-87
2022/07/28 11:00:24;;;;;;;8.43;7.50;;;29.50;52.00;;;;;;5086694;28;20423;-88
2022/07/28 11:03:00;;;;;;;8.30;6.10;;;29.60;52.20;;;;;;5076119;28;20571;-88
2022/07/28 11:05:33;;;;;;;11.70;6.00;;;29.90;52.50;;;;;;5078175;28;20515;-88
2022/07/28 11:08:21;;;;;;;7.30;6.60;;;29.70;51.90;;;;;;5078035;28;20431;-89
2022/07/28 11:10:52;;;;;;;7.20;6.07;;;29.40;52.30;;;;;;5068098;28;20446;-88
2022/07/28 11:13:29;;;;;;;9.83;6.07;;;29.20;53.00;;;;;;5081580;28;20467;-88
2022/07/28 11:15:56;;;;;;;6.80;5.87;;;29.50;53.10;;;;;;5074814;28;20470;-87
2022/07/28 11:18:22;;;;;;;6.60;5.40;;;29.50;53.50;;;;;;5078296;28;20943;-89
2022/07/28 11:20:57;;;;;;;6.60;6.00;;;29.20;53.50;;;;;;5079925;28;20475;-87
2022/07/28 11:23:42;;;;;;;6.87;5.67;;;29.20;53.40;;;;;;5080441;28;20467;-89
2022/07/28 11:26:23;;;;;;;6.80;6.10;;;29.50;52.90;;;;;;5078505;28;20936;-88
2022/07/28 11:29:02;;;;;;;6.60;5.90;;;29.90;52.80;;;;;;5075716;28;20463;-88
2022/07/28 11:31:43;;;;;;;12.27;6.27;;;30.30;52.00;;;;;;5078611;28;20433;-88
2022/07/28 11:34:09;;;;;;;7.33;6.17;;;30.40;52.70;;;;;;5080147;28;20987;-88
2022/07/28 11:36:56;;;;;;;7.17;6.47;;;30.80;53.00;;;;;;5076173;28;20433;-89
2022/07/28 11:39:23;;;;;;;6.57;5.97;;;30.60;52.00;;;;;;5084768;28;20426;-88
2022/07/28 11:41:49;;;;;;;7.43;5.90;;;30.50;51.80;;;;;;5082992;28;20544;-86
2022/07/28 11:44:28;;;;;;;6.67;6.07;;;30.20;52.10;;;;;;5080076;28;21123;-90
2022/07/28 11:47:17;;;;;;;7.57;6.67;;;30.10;52.50;;;;;;5081625;28;20179;-87
2022/07/28 11:49:44;;;;;;;7.00;6.40;;;30.00;52.30;;;;;;5091711;28;20454;-86
2022/07/28 11:52:12;;;;;;;6.77;6.13;;;29.80;52.40;;;;;;5090284;28;20449;-88
2022/07/28 11:54:40;;;;;;;9.03;6.00;;;30.10;52.20;;;;;;5087723;28;20423;-86
2022/07/28 11:57:08;;;;;;;8.17;5.50;;;30.30;52.20;;;;;;5102286;28;20433;-90
2022/07/28 11:59:45;;;;;;;6.27;5.63;;;30.90;51.80;;;;;;5086483;28;20517;-89
2022/07/28 12:02:18;;;;;;;12.00;6.90;;;30.80;52.20;;;;;;5085191;28;20448;-89
2022/07/28 12:04:45;;;;;;;9.00;6.33;;;30.30;51.50;;;;;;5090372;28;20934;-88
2022/07/28 12:07:11;;;;;;;13.33;7.40;;;30.60;51.60;;;;;;5085804;28;20423;-89
2022/07/28 12:09:38;;;;;;;7.10;6.43;;;30.70;51.20;;;;;;5087606;28;20470;-87
2022/07/28 12:12:05;;;;;;;6.47;5.50;;;31.10;50.70;;;;;;5088013;28;20619;-86
2022/07/28 12:14:37;;;;;;;6.93;6.20;;;31.00;49.40;;;;;;5092005;28;20970;-87
2022/07/28 12:17:03;;;;;;;7.47;6.77;;;31.00;49.90;;;;;;5085480;28;20443;-87
2022/07/28 12:19:30;;;;;;;7.23;6.63;;;31.00;50.40;;;;;;5086248;28;20433;-87
2022/07/28 12:21:55;;;;;;;6.63;6.03;;;31.10;50.40;;;;;;5084746;28;20462;-89
2022/07/28 12:24:29;;;;;;;7.83;5.80;;;31.40;50.20;;;;;;5083407;28;20976;-90
2022/07/28 12:26:56;;;;;;;8.07;5.60;;;31.50;49.90;;;;;;5080397;28;20183;-87
2022/07/28 12:29:22;;;;;;;7.00;6.37;;;31.70;49.10;;;;;;5091870;28;20457;-87
2022/07/28 12:31:59;;;;;;;8.03;5.87;;;31.50;49.30;;;;;;5085320;28;20480;-89
2022/07/28 12:34:26;;;;;;;6.57;6.03;;;31.40;49.80;;;;;;5083073;28;20419;-86
2022/07/28 12:36:55;;;;;;;6.60;6.10;;;31.40;49.80;;;;;;5083462;28;20459;-86
2022/07/28 12:39:24;;;;;;;7.20;5.70;;;31.00;49.40;;;;;;5088287;28;20434;-86
2022/07/28 12:42:02;;;;;;;6.60;5.03;;;30.70;49.90;;;;;;5091015;28;20469;-86
2022/07/28 12:44:41;;;;;;;5.87;5.30;;;30.30;50.50;;;;;;5084153;28;20465;-87
2022/07/28 12:47:12;;;;;;;6.20;5.33;;;30.40;51.00;;;;;;5089036;28;20492;-87
2022/07/28 12:49:39;;;;;;;5.80;4.60;;;30.40;50.90;;;;;;5081868;28;20528;-90
2022/07/28 12:52:24;;;;;;;5.70;5.20;;;30.40;50.40;;;;;;5096799;28;20458;-87